Time;durP1;ratioP1;P1;durP2;ratioP2;P2;SDS_P1;SDS_P2;PMS_P1;PMS_P2;Temp;Humidity;BMP_temperature;BMP_pressure;BME280_temperature;BME280_humidity;BME280_pressure;Samples;Min_cycle;Max_cycle;Signal;HPM_P1;HPM_P2
2023/07/21 00:01:10;;;;;;;1.95;1.95;;;;;;;;;;5067908;28;20218;-63
2023/07/21 00:03:38;;;;;;;2.67;2.03;;;;;;;;;;5067986;28;20202;-63
2023/07/21 00:06:06;;;;;;;2.20;1.85;;;;;;;;;;5065977;28;20836;-64
2023/07/21 00:08:33;;;;;;;2.08;1.98;;;;;;;;;;5047594;28;20259;-64
2023/07/21 00:11:00;;;;;;;2.38;2.20;;;;;;;;;;5053729;28;20203;-64
2023/07/21 00:13:29;;;;;;;2.20;2.00;;;;;;;;;;5063273;28;20296;-64
2023/07/21 00:15:56;;;;;;;1.80;1.70;;;;;;;;;;5050910;28;20235;-63
2023/07/21 00:18:25;;;;;;;2.10;1.98;;;;;;;;;;5067236;28;20731;-64
2023/07/21 00:20:52;;;;;;;2.15;1.70;;;;;;;;;;5067414;28;20210;-63
2023/07/21 00:23:20;;;;;;;1.90;1.85;;;;;;;;;;5060240;28;20208;-63
2023/07/21 00:25:47;;;;;;;1.70;1.67;;;;;;;;;;5049236;28;20208;-64
2023/07/21 00:28:14;;;;;;;2.00;2.00;;;;;;;;;;5067831;28;20219;-63
2023/07/21 00:30:42;;;;;;;2.00;1.90;;;;;;;;;;5049404;28;20671;-63
2023/07/21 00:33:09;;;;;;;1.80;1.70;;;;;;;;;;5047522;28;20246;-63
2023/07/21 00:35:37;;;;;;;1.80;1.80;;;;;;;;;;5058082;28;20203;-63
2023/07/21 00:38:04;;;;;;;2.00;1.95;;;;;;;;;;5049149;28;20219;-63
2023/07/21 00:40:32;;;;;;;2.00;1.90;;;;;;;;;;5057901;28;20375;-63
2023/07/21 00:43:00;;;;;;;1.52;1.52;;;;;;;;;;5067867;28;20317;-62
2023/07/21 00:45:27;;;;;;;2.25;1.90;;;;;;;;;;5049215;28;20203;-64
2023/07/21 00:47:54;;;;;;;2.10;2.00;;;;;;;;;;5048770;28;20212;-64
2023/07/21 00:50:22;;;;;;;3.10;1.92;;;;;;;;;;5062446;28;20207;-63
2023/07/21 00:52:50;;;;;;;2.10;2.00;;;;;;;;;;5067523;28;20246;-63
2023/07/21 00:55:18;;;;;;;1.90;1.90;;;;;;;;;;5067193;28;20235;-63
2023/07/21 00:57:45;;;;;;;2.13;2.00;;;;;;;;;;5065281;28;20268;-64
2023/07/21 01:00:13;;;;;;;2.35;1.48;;;;;;;;;;5065338;28;20723;-63
2023/07/21 01:02:40;;;;;;;2.20;2.10;;;;;;;;;;5065468;28;20589;-64
2023/07/21 01:05:08;;;;;;;2.17;2.17;;;;;;;;;;5066073;28;20206;-64
2023/07/21 01:07:36;;;;;;;2.10;2.00;;;;;;;;;;5046267;28;20210;-64
2023/07/21 01:10:05;;;;;;;2.20;2.08;;;;;;;;;;5067048;28;20264;-63
2023/07/21 01:12:32;;;;;;;2.05;1.90;;;;;;;;;;5065246;28;20203;-64
2023/07/21 01:14:59;;;;;;;2.30;2.20;;;;;;;;;;5064841;28;20646;-63
2023/07/21 01:17:29;;;;;;;1.92;1.83;;;;;;;;;;5063439;28;21957;-63
2023/07/21 01:19:56;;;;;;;2.05;1.75;;;;;;;;;;5059420;28;20241;-64
2023/07/21 01:22:26;;;;;;;2.25;2.15;;;;;;;;;;5060075;28;20239;-63
2023/07/21 01:25:14;;;;;;;2.00;1.90;;;;;;;;;;5046859;28;20270;-64
2023/07/21 01:27:43;;;;;;;2.42;2.22;;;;;;;;;;5053108;28;20215;-63
2023/07/21 01:30:11;;;;;;;7.30;2.00;;;;;;;;;;5046956;28;20208;-64
2023/07/21 01:32:39;;;;;;;2.63;1.98;;;;;;;;;;5047007;28;20269;-64
2023/07/21 01:35:09;;;;;;;2.03;1.92;;;;;;;;;;5062958;28;20250;-64
2023/07/21 01:37:36;;;;;;;1.90;1.90;;;;;;;;;;5063509;28;20670;-64
2023/07/21 01:40:06;;;;;;;2.05;1.95;;;;;;;;;;5066834;28;20264;-63
2023/07/21 01:42:33;;;;;;;2.20;2.10;;;;;;;;;;5066520;28;20242;-63
2023/07/21 01:45:03;;;;;;;1.90;1.80;;;;;;;;;;5066832;28;20215;-63
2023/07/21 01:47:31;;;;;;;2.70;1.80;;;;;;;;;;5056532;28;20208;-63
2023/07/21 01:49:58;;;;;;;2.05;1.85;;;;;;;;;;5050565;28;20203;-63
2023/07/21 01:52:26;;;;;;;1.80;1.80;;;;;;;;;;5059206;28;20303;-64
2023/07/21 01:54:54;;;;;;;2.15;1.92;;;;;;;;;;5070027;28;20711;-63
2023/07/21 01:57:25;;;;;;;2.20;2.00;;;;;;;;;;5063287;28;20196;-63
2023/07/21 01:59:53;;;;;;;1.55;1.55;;;;;;;;;;5060750;28;20214;-63
2023/07/21 02:02:21;;;;;;;2.35;2.15;;;;;;;;;;5070239;28;20215;-64
2023/07/21 02:04:51;;;;;;;2.40;2.30;;;;;;;;;;5070064;28;20268;-63
2023/07/21 02:07:20;;;;;;;2.30;2.20;;;;;;;;;;5066636;28;20258;-63
2023/07/21 02:09:47;;;;;;;2.17;1.98;;;;;;;;;;5061489;28;20206;-62
2023/07/21 02:12:14;;;;;;;2.03;2.00;;;;;;;;;;5069254;28;20316;-64
2023/07/21 02:14:41;;;;;;;2.00;1.90;;;;;;;;;;5069837;28;20735;-63
2023/07/21 02:17:08;;;;;;;2.30;2.20;;;;;;;;;;5053807;28;20247;-64
2023/07/21 02:19:37;;;;;;;2.15;2.05;;;;;;;;;;5066878;28;20207;-64
2023/07/21 02:22:04;;;;;;;4.45;2.10;;;;;;;;;;5069679;28;20214;-61
2023/07/21 02:24:31;;;;;;;2.10;2.10;;;;;;;;;;5069342;28;20253;-61
2023/07/21 02:26:59;;;;;;;2.28;2.28;;;;;;;;;;5069511;28;20215;-65
2023/07/21 02:29:27;;;;;;;2.60;2.50;;;;;;;;;;5067627;28;20645;-61
2023/07/21 02:31:54;;;;;;;2.20;2.20;;;;;;;;;;5067489;28;20219;-61
2023/07/21 02:34:21;;;;;;;2.50;2.30;;;;;;;;;;5069167;28;20234;-61
2023/07/21 02:36:49;;;;;;;2.25;2.25;;;;;;;;;;5064077;28;20211;-62
2023/07/21 02:39:16;;;;;;;2.38;2.38;;;;;;;;;;5050285;28;20200;-62
2023/07/21 02:41:43;;;;;;;2.42;2.33;;;;;;;;;;5050417;28;20219;-62
2023/07/21 02:44:10;;;;;;;2.22;2.20;;;;;;;;;;5048844;28;20230;-63
2023/07/21 02:46:37;;;;;;;2.33;2.22;;;;;;;;;;5055912;28;20202;-62
2023/07/21 02:49:04;;;;;;;2.53;2.33;;;;;;;;;;5067639;28;20215;-63
2023/07/21 02:51:32;;;;;;;2.40;2.30;;;;;;;;;;5049444;28;20261;-62
2023/07/21 02:54:01;;;;;;;2.35;2.25;;;;;;;;;;5068869;28;20727;-63
2023/07/21 02:56:28;;;;;;;2.28;2.28;;;;;;;;;;5067161;28;20207;-62
2023/07/21 02:58:56;;;;;;;2.60;2.40;;;;;;;;;;5049049;28;20203;-62
2023/07/21 03:01:24;;;;;;;2.42;2.33;;;;;;;;;;5049305;28;20666;-62
2023/07/21 03:03:54;;;;;;;2.60;2.50;;;;;;;;;;5067538;28;20271;-62
2023/07/21 03:06:21;;;;;;;2.70;2.60;;;;;;;;;;5068567;28;20220;-63
2023/07/21 03:08:48;;;;;;;2.67;2.47;;;;;;;;;;5068569;28;20207;-62
2023/07/21 03:11:17;;;;;;;2.78;2.67;;;;;;;;;;5059125;28;20589;-63
2023/07/21 03:13:44;;;;;;;2.70;2.60;;;;;;;;;;5050073;28;20622;-63
2023/07/21 03:16:12;;;;;;;2.60;2.42;;;;;;;;;;5048049;28;20705;-62
2023/07/21 03:18:39;;;;;;;3.15;2.70;;;;;;;;;;5050879;28;20208;-62
2023/07/21 03:21:07;;;;;;;2.67;2.58;;;;;;;;;;5060320;28;20211;-62
2023/07/21 03:23:34;;;;;;;2.83;2.45;;;;;;;;;;5055311;28;20226;-62
2023/07/21 03:26:01;;;;;;;2.63;2.47;;;;;;;;;;5048383;28;20203;-62
2023/07/21 03:28:29;;;;;;;2.45;2.35;;;;;;;;;;5048287;28;20215;-63
2023/07/21 03:31:00;;;;;;;2.88;2.67;;;;;;;;;;5051157;28;20266;-62
2023/07/21 03:33:27;;;;;;;2.25;2.25;;;;;;;;;;5046089;28;20216;-63
2023/07/21 03:36:01;;;;;;;3.00;2.47;;;;;;;;;;5046545;28;20270;-63
2023/07/21 03:38:29;;;;;;;2.80;2.70;;;;;;;;;;5059638;28;20700;-62
2023/07/21 03:41:05;;;;;;;2.70;2.50;;;;;;;;;;5068380;28;20211;-62
2023/07/21 03:43:35;;;;;;;2.65;2.45;;;;;;;;;;5066088;28;20647;-62
2023/07/21 03:46:02;;;;;;;2.40;2.30;;;;;;;;;;5064643;28;20649;-62
2023/07/21 03:48:30;;;;;;;3.15;2.35;;;;;;;;;;5047991;28;20212;-63
2023/07/21 03:50:58;;;;;;;3.03;2.67;;;;;;;;;;5046694;28;20215;-63
2023/07/21 03:53:26;;;;;;;2.60;2.50;;;;;;;;;;5050999;28;20306;-63
2023/07/21 03:55:53;;;;;;;3.20;2.83;;;;;;;;;;5049239;28;20244;-63
2023/07/21 03:58:21;;;;;;;2.53;2.42;;;;;;;;;;5067571;28;20683;-63
2023/07/21 04:00:49;;;;;;;3.08;2.92;;;;;;;;;;5066553;28;20199;-63
2023/07/21 04:03:17;;;;;;;2.78;2.67;;;;;;;;;;5060523;28;20203;-63
2023/07/21 04:05:44;;;;;;;3.45;3.28;;;;;;;;;;5048108;28;20920;-62
2023/07/21 04:08:11;;;;;;;2.88;2.78;;;;;;;;;;5047639;28;20294;-63
2023/07/21 04:10:41;;;;;;;3.45;2.70;;;;;;;;;;5049038;28;20207;-62
2023/07/21 04:13:09;;;;;;;2.78;2.67;;;;;;;;;;5065419;28;20234;-63
2023/07/21 04:15:36;;;;;;;3.30;3.10;;;;;;;;;;5062263;28;20227;-62
2023/07/21 04:18:15;;;;;;;6.10;2.97;;;;;;;;;;5046611;28;20330;-62
2023/07/21 04:20:42;;;;;;;2.92;2.72;;;;;;;;;;5045966;28;20298;-62
2023/07/21 04:23:10;;;;;;;4.97;3.22;;;;;;;;;;5050846;28;20655;-63
2023/07/21 04:25:37;;;;;;;3.83;3.53;;;;;;;;;;5047411;28;20589;-62
2023/07/21 04:28:05;;;;;;;3.40;3.20;;;;;;;;;;5052310;28;20222;-62
2023/07/21 04:30:32;;;;;;;4.47;3.40;;;;;;;;;;5067893;28;20207;-62
2023/07/21 04:32:59;;;;;;;3.50;3.20;;;;;;;;;;5066063;28;20578;-63
2023/07/21 04:35:28;;;;;;;3.03;2.83;;;;;;;;;;5065515;28;20908;-62
2023/07/21 04:37:55;;;;;;;4.22;3.10;;;;;;;;;;5065317;28;20217;-63
2023/07/21 04:40:22;;;;;;;2.95;2.80;;;;;;;;;;5066090;28;20206;-63
2023/07/21 04:42:50;;;;;;;2.60;2.60;;;;;;;;;;5062789;28;20736;-63
2023/07/21 04:45:17;;;;;;;3.92;2.90;;;;;;;;;;5066411;28;20676;-63
2023/07/21 04:47:49;;;;;;;2.72;2.60;;;;;;;;;;5068056;28;20226;-62
2023/07/21 04:50:16;;;;;;;3.13;2.95;;;;;;;;;;5067904;28;20214;-62
2023/07/21 04:52:46;;;;;;;3.35;3.22;;;;;;;;;;5065950;28;20211;-62
2023/07/21 04:55:13;;;;;;;3.30;3.20;;;;;;;;;;5067803;28;20222;-62
2023/07/21 04:57:42;;;;;;;3.13;2.88;;;;;;;;;;5066157;28;20286;-62
2023/07/21 05:00:11;;;;;;;2.83;2.67;;;;;;;;;;5067589;28;20225;-63
2023/07/21 05:02:38;;;;;;;3.00;2.90;;;;;;;;;;5067208;28;20207;-62
2023/07/21 05:05:07;;;;;;;3.42;3.20;;;;;;;;;;5057954;28;20662;-63
2023/07/21 05:07:34;;;;;;;3.78;3.55;;;;;;;;;;5048801;28;20206;-63
2023/07/21 05:10:03;;;;;;;3.40;3.20;;;;;;;;;;5059286;28;20205;-62
2023/07/21 05:12:30;;;;;;;3.35;3.05;;;;;;;;;;5067697;28;20365;-62
2023/07/21 05:14:58;;;;;;;3.10;2.88;;;;;;;;;;5049008;28;20274;-62
2023/07/21 05:17:27;;;;;;;4.50;2.75;;;;;;;;;;5047612;28;20297;-62
2023/07/21 05:19:54;;;;;;;3.67;3.17;;;;;;;;;;5047631;28;20249;-62
2023/07/21 05:22:21;;;;;;;3.50;3.20;;;;;;;;;;5051091;28;20236;-62
2023/07/21 05:24:48;;;;;;;3.00;2.80;;;;;;;;;;5053526;28;20257;-63
2023/07/21 05:27:18;;;;;;;3.17;2.97;;;;;;;;;;5050500;28;20307;-62
2023/07/21 05:29:45;;;;;;;3.47;3.17;;;;;;;;;;5051255;28;20269;-63
2023/07/21 05:32:15;;;;;;;3.78;3.47;;;;;;;;;;5057046;28;20695;-62
2023/07/21 05:34:42;;;;;;;3.53;3.22;;;;;;;;;;5058250;28;20208;-61
2023/07/21 05:37:11;;;;;;;3.47;2.85;;;;;;;;;;5051029;28;20239;-62
2023/07/21 05:39:39;;;;;;;5.13;3.33;;;;;;;;;;5065558;28;20735;-61
2023/07/21 05:42:07;;;;;;;3.15;2.95;;;;;;;;;;5059351;28;20326;-63
2023/07/21 05:44:37;;;;;;;3.17;3.00;;;;;;;;;;5050741;28;20215;-62
2023/07/21 05:47:05;;;;;;;3.22;3.00;;;;;;;;;;5062805;28;20215;-59
2023/07/21 05:49:33;;;;;;;3.58;3.38;;;;;;;;;;5070516;28;20207;-59
2023/07/21 05:52:42;;;;;;;3.97;3.67;;;;;;;;;;5052806;28;20215;-60
2023/07/21 05:55:10;;;;;;;3.30;3.10;;;;;;;;;;5050446;28;20353;-59
2023/07/21 05:57:37;;;;;;;3.30;3.20;;;;;;;;;;5063090;28;20374;-59
2023/07/21 06:00:07;;;;;;;3.58;3.28;;;;;;;;;;5050423;28;20704;-60
2023/07/21 06:02:34;;;;;;;3.28;3.17;;;;;;;;;;5050144;28;20219;-59
2023/07/21 06:05:01;;;;;;;3.78;3.58;;;;;;;;;;5069664;28;20209;-59
2023/07/21 06:07:28;;;;;;;3.92;3.63;;;;;;;;;;5069344;28;20215;-59
2023/07/21 06:09:55;;;;;;;4.00;3.30;;;;;;;;;;5061994;28;20235;-59
2023/07/21 06:12:22;;;;;;;6.05;3.65;;;;;;;;;;5050253;28;20273;-59
2023/07/21 06:14:49;;;;;;;3.53;3.25;;;;;;;;;;5049589;28;20265;-60
2023/07/21 06:17:19;;;;;;;3.70;3.33;;;;;;;;;;5049841;28;20246;-59
2023/07/21 06:19:47;;;;;;;3.90;3.65;;;;;;;;;;5046135;28;20219;-60
2023/07/21 06:22:14;;;;;;;3.20;2.90;;;;;;;;;;5047903;28;20234;-62
2023/07/21 06:24:43;;;;;;;3.85;3.58;;;;;;;;;;5047987;28;20284;-60
2023/07/21 06:27:11;;;;;;;2.92;2.78;;;;;;;;;;5049322;28;20207;-60
2023/07/21 06:29:38;;;;;;;3.67;3.47;;;;;;;;;;5057914;28;20239;-60
2023/07/21 06:32:06;;;;;;;3.08;2.97;;;;;;;;;;5069470;28;20218;-59
2023/07/21 06:34:34;;;;;;;3.38;3.17;;;;;;;;;;5068677;28;20210;-60
2023/07/21 06:37:02;;;;;;;2.95;2.85;;;;;;;;;;5069431;28;20227;-61
2023/07/21 06:39:29;;;;;;;3.00;2.90;;;;;;;;;;5069286;28;20530;-60
2023/07/21 06:42:11;;;;;;;3.50;3.30;;;;;;;;;;5069427;28;20211;-61
2023/07/21 06:44:38;;;;;;;3.53;3.33;;;;;;;;;;5069097;28;20238;-60
2023/07/21 06:47:06;;;;;;;3.83;3.17;;;;;;;;;;5055262;28;20589;-60
2023/07/21 06:49:34;;;;;;;3.30;3.20;;;;;;;;;;5049060;28;20207;-60
2023/07/21 06:52:03;;;;;;;3.33;3.13;;;;;;;;;;5049339;28;20738;-59
2023/07/21 06:54:31;;;;;;;2.90;2.70;;;;;;;;;;5048940;28;20223;-60
2023/07/21 06:56:59;;;;;;;3.63;2.78;;;;;;;;;;5048213;28;20239;-60
2023/07/21 06:59:26;;;;;;;2.90;2.80;;;;;;;;;;5055453;28;20815;-60
2023/07/21 07:01:53;;;;;;;5.07;3.10;;;;;;;;;;5062618;28;20214;-60
2023/07/21 07:04:21;;;;;;;3.50;2.70;;;;;;;;;;5064533;28;20535;-60
2023/07/21 07:06:50;;;;;;;3.10;2.90;;;;;;;;;;5067251;28;20314;-61
2023/07/21 07:09:17;;;;;;;2.78;2.58;;;;;;;;;;5068282;28;20226;-60
2023/07/21 07:11:44;;;;;;;2.72;2.63;;;;;;;;;;5069268;28;20211;-60
2023/07/21 07:14:11;;;;;;;2.58;2.50;;;;;;;;;;5065890;28;20257;-60
2023/07/21 07:16:38;;;;;;;2.38;2.17;;;;;;;;;;5056264;28;20335;-60
2023/07/21 07:19:06;;;;;;;5.18;3.17;;;;;;;;;;5068995;28;20680;-60
2023/07/21 07:21:33;;;;;;;4.25;3.00;;;;;;;;;;5068663;28;20651;-60
2023/07/21 07:24:02;;;;;;;3.78;3.47;;;;;;;;;;5068921;28;20203;-59
2023/07/21 07:26:29;;;;;;;3.22;3.13;;;;;;;;;;5068000;28;20912;-59
2023/07/21 07:28:57;;;;;;;4.05;2.72;;;;;;;;;;5068617;28;20215;-60
2023/07/21 07:31:24;;;;;;;2.78;2.65;;;;;;;;;;5059844;28;20200;-59
2023/07/21 07:33:52;;;;;;;2.47;2.38;;;;;;;;;;5051970;28;20208;-59
2023/07/21 07:36:19;;;;;;;2.97;2.75;;;;;;;;;;5060113;28;20231;-60
2023/07/21 07:38:46;;;;;;;2.53;2.42;;;;;;;;;;5056650;28;20650;-60
2023/07/21 07:41:14;;;;;;;2.65;2.55;;;;;;;;;;5068008;28;20445;-61
2023/07/21 07:43:41;;;;;;;3.13;2.92;;;;;;;;;;5068059;28;20227;-59
2023/07/21 07:46:08;;;;;;;2.90;2.70;;;;;;;;;;5066951;28;20603;-59
2023/07/21 07:48:35;;;;;;;3.05;2.85;;;;;;;;;;5067317;28;20234;-60
2023/07/21 07:51:04;;;;;;;3.17;2.97;;;;;;;;;;5055622;28;20229;-59
2023/07/21 07:53:31;;;;;;;3.40;3.10;;;;;;;;;;5047718;28;20219;-59
2023/07/21 07:55:58;;;;;;;3.13;2.92;;;;;;;;;;5047779;28;20581;-60
2023/07/21 07:58:26;;;;;;;3.97;2.95;;;;;;;;;;5048398;28;20777;-59
2023/07/21 08:00:56;;;;;;;2.88;2.67;;;;;;;;;;5059269;28;20726;-60
2023/07/21 08:03:23;;;;;;;2.78;2.45;;;;;;;;;;5056452;28;20278;-60
2023/07/21 08:05:50;;;;;;;2.85;2.65;;;;;;;;;;5051631;28;20195;-61
2023/07/21 08:08:20;;;;;;;2.50;2.40;;;;;;;;;;5068107;28;20230;-59
2023/07/21 08:10:47;;;;;;;2.17;2.08;;;;;;;;;;5062379;28;20282;-60
2023/07/21 08:13:14;;;;;;;3.42;2.83;;;;;;;;;;5049426;28;20215;-59
2023/07/21 08:15:42;;;;;;;2.67;2.55;;;;;;;;;;5054293;28;20204;-59
2023/07/21 08:18:09;;;;;;;2.92;2.83;;;;;;;;;;5047256;28;20247;-60
2023/07/21 08:20:37;;;;;;;2.65;2.55;;;;;;;;;;5047870;28;20211;-60
2023/07/21 08:23:05;;;;;;;2.90;2.75;;;;;;;;;;5047889;28;20272;-59
2023/07/21 08:25:32;;;;;;;2.67;2.58;;;;;;;;;;5048799;28;20230;-59
2023/07/21 08:28:00;;;;;;;2.92;2.78;;;;;;;;;;5058752;28;20207;-59
2023/07/21 08:30:27;;;;;;;2.70;2.60;;;;;;;;;;5053993;28;20195;-62
2023/07/21 08:32:58;;;;;;;4.43;2.65;;;;;;;;;;5056301;28;20212;-58
2023/07/21 08:35:25;;;;;;;2.17;2.08;;;;;;;;;;5066542;28;20231;-59
2023/07/21 08:37:52;;;;;;;2.00;2.00;;;;;;;;;;5061034;28;20223;-59
2023/07/21 08:40:22;;;;;;;5.80;2.40;;;;;;;;;;5062609;28;20215;-59
2023/07/21 08:42:50;;;;;;;2.10;2.00;;;;;;;;;;5049343;28;20228;-59
2023/07/21 08:45:17;;;;;;;2.00;2.00;;;;;;;;;;5048396;28;20223;-58
2023/07/21 08:47:44;;;;;;;2.40;2.30;;;;;;;;;;5048738;28;20214;-59
2023/07/21 08:50:17;;;;;;;2.67;2.20;;;;;;;;;;5051470;28;20302;-59
2023/07/21 08:52:44;;;;;;;1.70;1.60;;;;;;;;;;5047716;28;20254;-59
2023/07/21 08:55:11;;;;;;;1.45;1.45;;;;;;;;;;5055170;28;20210;-59
2023/07/21 08:57:38;;;;;;;2.05;1.95;;;;;;;;;;5064936;28;20215;-59
2023/07/21 09:00:05;;;;;;;1.98;1.90;;;;;;;;;;5048440;28;20808;-59
2023/07/21 09:02:39;;;;;;;1.90;1.80;;;;;;;;;;5050608;28;20382;-59
2023/07/21 09:05:07;;;;;;;1.80;1.80;;;;;;;;;;5050473;28;20585;-59
2023/07/21 09:07:36;;;;;;;2.10;2.00;;;;;;;;;;5061767;28;20203;-59
2023/07/21 09:10:05;;;;;;;2.17;2.08;;;;;;;;;;5048016;28;20239;-59
2023/07/21 09:12:36;;;;;;;2.20;2.10;;;;;;;;;;5068387;28;20661;-60
2023/07/21 09:15:08;;;;;;;1.80;1.70;;;;;;;;;;5070315;28;20733;-59
2023/07/21 09:17:35;;;;;;;1.88;1.77;;;;;;;;;;5068483;28;20326;-59
2023/07/21 09:20:07;;;;;;;1.70;1.67;;;;;;;;;;5070629;28;20214;-60
2023/07/21 09:22:35;;;;;;;1.60;1.50;;;;;;;;;;5070361;28;20579;-59
2023/07/21 09:25:02;;;;;;;1.90;1.80;;;;;;;;;;5070417;28;20210;-60
2023/07/21 09:27:30;;;;;;;1.90;1.77;;;;;;;;;;5069705;28;20215;-60
2023/07/21 09:30:00;;;;;;;1.80;1.70;;;;;;;;;;5070301;28;20211;-60
2023/07/21 09:32:27;;;;;;;5.28;1.77;;;;;;;;;;5069153;28;20673;-59
2023/07/21 09:34:55;;;;;;;2.70;1.85;;;;;;;;;;5070222;28;20639;-60
2023/07/21 09:37:23;;;;;;;1.95;1.80;;;;;;;;;;5069055;28;20227;-60
2023/07/21 09:39:55;;;;;;;1.85;1.52;;;;;;;;;;5069891;28;20888;-60
2023/07/21 09:42:23;;;;;;;1.35;1.30;;;;;;;;;;5070103;28;20305;-60
2023/07/21 09:44:51;;;;;;;1.50;1.50;;;;;;;;;;5070070;28;20290;-60
2023/07/21 09:47:18;;;;;;;1.50;1.45;;;;;;;;;;5070119;28;20199;-59
2023/07/21 09:49:45;;;;;;;1.25;1.25;;;;;;;;;;5070040;28;20436;-60
2023/07/21 09:52:15;;;;;;;2.00;1.52;;;;;;;;;;5069681;28;20215;-60
2023/07/21 09:54:43;;;;;;;1.50;1.50;;;;;;;;;;5070022;28;20298;-60
2023/07/21 09:57:13;;;;;;;1.65;1.63;;;;;;;;;;5069680;28;20321;-60
2023/07/21 09:59:41;;;;;;;1.58;1.50;;;;;;;;;;5069199;28;20210;-59
2023/07/21 10:02:09;;;;;;;1.80;1.70;;;;;;;;;;5069783;28;20405;-60
2023/07/21 10:04:37;;;;;;;1.48;1.48;;;;;;;;;;5069870;28;20217;-61
2023/07/21 10:07:04;;;;;;;1.67;1.58;;;;;;;;;;5068956;28;20439;-60
2023/07/21 10:09:32;;;;;;;1.20;1.20;;;;;;;;;;5068680;28;20306;-60
2023/07/21 10:12:09;;;;;;;1.30;1.30;;;;;;;;;;5069680;28;20206;-60
2023/07/21 10:14:38;;;;;;;1.35;1.35;;;;;;;;;;5069830;28;20582;-60
2023/07/21 10:17:05;;;;;;;1.60;1.50;;;;;;;;;;5068311;28;20615;-60
2023/07/21 10:19:40;;;;;;;1.50;1.50;;;;;;;;;;5069555;28;20211;-60
2023/07/21 10:22:10;;;;;;;1.65;1.55;;;;;;;;;;5069075;28;20317;-59
2023/07/21 10:24:43;;;;;;;1.45;1.45;;;;;;;;;;5069388;28;20348;-59
2023/07/21 10:27:10;;;;;;;1.30;1.30;;;;;;;;;;5068639;28;20195;-60
2023/07/21 10:29:39;;;;;;;1.77;1.58;;;;;;;;;;5069209;28;20202;-61
2023/07/21 10:32:06;;;;;;;1.45;1.45;;;;;;;;;;5068882;28;20264;-60
2023/07/21 10:34:34;;;;;;;1.38;1.38;;;;;;;;;;5069115;28;20218;-60
2023/07/21 10:37:04;;;;;;;1.17;1.17;;;;;;;;;;5068794;28;20317;-61
2023/07/21 10:39:32;;;;;;;1.38;1.38;;;;;;;;;;5066159;28;20309;-60
2023/07/21 10:42:00;;;;;;;1.60;1.50;;;;;;;;;;5049371;28;20239;-60
2023/07/21 10:44:34;;;;;;;1.75;1.63;;;;;;;;;;5047314;28;20223;-60
2023/07/21 10:47:02;;;;;;;2.05;1.50;;;;;;;;;;5061758;28;20302;-61
2023/07/21 10:49:29;;;;;;;1.50;1.50;;;;;;;;;;5067264;28;20211;-63
2023/07/21 10:51:56;;;;;;;1.73;1.63;;;;;;;;;;5069057;28;20203;-62
2023/07/21 10:54:23;;;;;;;1.40;1.40;;;;;;;;;;5069090;28;20426;-61
2023/07/21 10:56:51;;;;;;;2.03;1.70;;;;;;;;;;5068408;28;20242;-62
2023/07/21 10:59:18;;;;;;;2.55;1.58;;;;;;;;;;5068860;28;20211;-62
2023/07/21 11:01:46;;;;;;;1.60;1.50;;;;;;;;;;5068797;28;20298;-62
2023/07/21 11:04:15;;;;;;;1.67;1.60;;;;;;;;;;5067588;28;20247;-60
2023/07/21 11:06:42;;;;;;;1.73;1.60;;;;;;;;;;5068923;28;20211;-62
2023/07/21 11:09:12;;;;;;;2.03;1.55;;;;;;;;;;5067627;28;20258;-62
2023/07/21 11:11:40;;;;;;;1.50;1.50;;;;;;;;;;5065339;28;20208;-59
2023/07/21 11:14:10;;;;;;;1.65;1.55;;;;;;;;;;5066418;28;20223;-59
2023/07/21 11:16:42;;;;;;;2.47;1.60;;;;;;;;;;5068400;28;20784;-61
2023/07/21 11:19:09;;;;;;;5.30;1.50;;;;;;;;;;5068063;28;20542;-61
2023/07/21 11:21:39;;;;;;;1.77;1.77;;;;;;;;;;5068428;28;20207;-61
2023/07/21 11:24:08;;;;;;;3.40;1.25;;;;;;;;;;5066311;28;20210;-61
2023/07/21 11:26:36;;;;;;;11.30;1.90;;;;;;;;;;5051818;28;20633;-64
2023/07/21 11:29:05;;;;;;;1.38;1.38;;;;;;;;;;5046139;28;20673;-60
2023/07/21 11:31:33;;;;;;;1.40;1.40;;;;;;;;;;5053784;28;20654;-61
2023/07/21 11:34:00;;;;;;;1.63;1.52;;;;;;;;;;5058671;28;20306;-62
2023/07/21 11:36:29;;;;;;;1.98;1.80;;;;;;;;;;5066375;28;20207;-61
2023/07/21 11:38:58;;;;;;;1.60;1.45;;;;;;;;;;5067656;28;20281;-60
2023/07/21 11:41:36;;;;;;;1.95;1.15;;;;;;;;;;5066839;28;20211;-60
2023/07/21 11:44:06;;;;;;;1.83;1.50;;;;;;;;;;5067438;28;20276;-61
2023/07/21 11:46:34;;;;;;;4.30;1.52;;;;;;;;;;5054133;28;20196;-60
2023/07/21 11:49:01;;;;;;;1.42;1.38;;;;;;;;;;5059124;28;20317;-60
2023/07/21 11:51:29;;;;;;;1.58;1.55;;;;;;;;;;5067303;28;20333;-60
2023/07/21 11:53:58;;;;;;;1.65;1.55;;;;;;;;;;5066719;28;20700;-60
2023/07/21 11:56:26;;;;;;;1.52;1.42;;;;;;;;;;5067199;28;20218;-60
2023/07/21 11:58:53;;;;;;;1.40;1.30;;;;;;;;;;5067389;28;20560;-60
2023/07/21 12:01:21;;;;;;;1.30;1.08;;;;;;;;;;5067434;28;20211;-60
2023/07/21 12:03:48;;;;;;;1.35;1.30;;;;;;;;;;5067347;28;20199;-62
2023/07/21 12:06:15;;;;;;;1.10;1.10;;;;;;;;;;5067530;28;20211;-60
2023/07/21 12:08:42;;;;;;;1.20;1.15;;;;;;;;;;5067468;28;20222;-62
2023/07/21 12:11:09;;;;;;;1.00;1.00;;;;;;;;;;5066995;28;20218;-62
2023/07/21 12:13:38;;;;;;;1.25;1.20;;;;;;;;;;5067253;28;20606;-60
2023/07/21 12:16:07;;;;;;;2.10;1.15;;;;;;;;;;5067189;28;20404;-61
2023/07/21 12:18:34;;;;;;;3.80;1.10;;;;;;;;;;5061769;28;20242;-61
2023/07/21 12:21:01;;;;;;;1.63;1.30;;;;;;;;;;5066656;28;20302;-61
2023/07/21 12:23:28;;;;;;;1.52;1.20;;;;;;;;;;5051524;28;20869;-61
2023/07/21 12:25:55;;;;;;;1.50;1.40;;;;;;;;;;5067432;28;20218;-61
2023/07/21 12:28:22;;;;;;;3.17;1.63;;;;;;;;;;5067259;28;20211;-61
2023/07/21 12:30:51;;;;;;;1.17;1.17;;;;;;;;;;5066785;28;20211;-61
2023/07/21 12:33:18;;;;;;;1.50;1.00;;;;;;;;;;5050766;28;20212;-61
2023/07/21 12:35:45;;;;;;;2.90;1.25;;;;;;;;;;5067116;28;20701;-61
2023/07/21 12:38:13;;;;;;;1.17;1.17;;;;;;;;;;5057695;28;20326;-61
2023/07/21 12:40:41;;;;;;;1.20;1.13;;;;;;;;;;5066797;28;20270;-61
2023/07/21 12:43:08;;;;;;;1.42;1.00;;;;;;;;;;5066012;28;20231;-61
2023/07/21 12:45:35;;;;;;;0.95;0.90;;;;;;;;;;5065704;28;20662;-61
2023/07/21 12:48:03;;;;;;;1.15;1.15;;;;;;;;;;5066538;28;20306;-62
2023/07/21 12:50:30;;;;;;;0.90;0.90;;;;;;;;;;5066263;28;20207;-61
2023/07/21 12:52:57;;;;;;;1.42;1.10;;;;;;;;;;5059851;28;20211;-60
2023/07/21 12:55:24;;;;;;;1.20;1.20;;;;;;;;;;5058892;28;20467;-60
2023/07/21 12:57:51;;;;;;;2.55;1.15;;;;;;;;;;5059276;28;20696;-61
2023/07/21 13:00:18;;;;;;;1.10;1.10;;;;;;;;;;5058524;28;20691;-60
2023/07/21 13:02:45;;;;;;;1.23;1.02;;;;;;;;;;5067111;28;20218;-60
2023/07/21 13:05:14;;;;;;;2.58;1.10;;;;;;;;;;5061238;28;20207;-60
2023/07/21 13:07:41;;;;;;;2.40;0.95;;;;;;;;;;5064716;28;20641;-61
2023/07/21 13:10:08;;;;;;;0.90;0.90;;;;;;;;;;5062031;28;20255;-60
2023/07/21 13:12:36;;;;;;;2.10;0.85;;;;;;;;;;5065867;28;20207;-62
2023/07/21 13:15:03;;;;;;;0.80;0.80;;;;;;;;;;5062478;28;20218;-62
2023/07/21 13:17:31;;;;;;;1.05;0.95;;;;;;;;;;5044435;28;20694;-62
2023/07/21 13:19:58;;;;;;;1.65;0.93;;;;;;;;;;5058909;28;20223;-61
2023/07/21 13:22:26;;;;;;;0.90;0.90;;;;;;;;;;5056802;28;20228;-61
2023/07/21 13:24:53;;;;;;;1.85;1.05;;;;;;;;;;5051461;28;20329;-61
2023/07/21 13:27:20;;;;;;;1.02;0.85;;;;;;;;;;5056774;28;20348;-61
2023/07/21 13:29:47;;;;;;;1.92;0.95;;;;;;;;;;5051429;28;20206;-61
2023/07/21 13:32:15;;;;;;;0.80;0.80;;;;;;;;;;5064401;28;20218;-60
2023/07/21 13:34:42;;;;;;;1.17;1.05;;;;;;;;;;5065225;28;20674;-60
2023/07/21 13:37:09;;;;;;;0.95;0.93;;;;;;;;;;5051046;28;20227;-59
2023/07/21 13:39:37;;;;;;;2.17;0.93;;;;;;;;;;5064476;28;20207;-60
2023/07/21 13:42:05;;;;;;;1.00;0.90;;;;;;;;;;5060857;28;20385;-60
2023/07/21 13:44:33;;;;;;;1.77;0.80;;;;;;;;;;5049387;28;20231;-60
2023/07/21 13:47:00;;;;;;;2.35;0.73;;;;;;;;;;5066678;28;20260;-60
2023/07/21 13:49:28;;;;;;;0.82;0.82;;;;;;;;;;5050569;28;20265;-60
2023/07/21 13:51:55;;;;;;;0.70;0.70;;;;;;;;;;5067169;28;20226;-60
2023/07/21 13:54:22;;;;;;;0.80;0.80;;;;;;;;;;5053661;28;20261;-60
2023/07/21 13:56:50;;;;;;;2.10;0.80;;;;;;;;;;5063634;28;20214;-60
2023/07/21 13:59:17;;;;;;;3.05;0.90;;;;;;;;;;5065763;28;20219;-60
2023/07/21 14:01:45;;;;;;;1.85;0.82;;;;;;;;;;5047981;28;20207;-60
2023/07/21 14:04:12;;;;;;;0.90;0.90;;;;;;;;;;5068300;28;20210;-60
2023/07/21 14:06:39;;;;;;;0.70;0.70;;;;;;;;;;5058095;28;20227;-60
2023/07/21 14:09:07;;;;;;;0.80;0.77;;;;;;;;;;5068194;28;20202;-60
2023/07/21 14:11:35;;;;;;;1.63;1.05;;;;;;;;;;5067459;28;20358;-61
2023/07/21 14:14:03;;;;;;;0.88;0.88;;;;;;;;;;5061286;28;20414;-60
2023/07/21 14:16:30;;;;;;;0.80;0.80;;;;;;;;;;5056121;28;20247;-61
2023/07/21 14:18:58;;;;;;;0.75;0.75;;;;;;;;;;5058270;28;20222;-60
2023/07/21 14:21:26;;;;;;;0.90;0.90;;;;;;;;;;5056498;28;20262;-61
2023/07/21 14:23:54;;;;;;;2.47;0.82;;;;;;;;;;5068518;28;20239;-61
2023/07/21 14:26:21;;;;;;;1.35;0.88;;;;;;;;;;5062528;28;20203;-61
2023/07/21 14:28:48;;;;;;;0.80;0.80;;;;;;;;;;5057087;28;20199;-61
2023/07/21 14:31:17;;;;;;;0.90;0.90;;;;;;;;;;5068183;28;20199;-60
2023/07/21 14:33:44;;;;;;;0.98;0.98;;;;;;;;;;5066631;28;20219;-60
2023/07/21 14:36:11;;;;;;;0.95;0.65;;;;;;;;;;5067036;28;20207;-60
2023/07/21 14:38:38;;;;;;;0.73;0.73;;;;;;;;;;5060000;28;20227;-61
2023/07/21 14:41:05;;;;;;;0.77;0.77;;;;;;;;;;5068095;28;20214;-60
2023/07/21 14:43:33;;;;;;;1.00;1.00;;;;;;;;;;5057768;28;20713;-60
2023/07/21 14:46:00;;;;;;;1.17;0.90;;;;;;;;;;5060391;28;20283;-60
2023/07/21 14:48:30;;;;;;;1.00;1.00;;;;;;;;;;5063415;28;20673;-59